TUPJ/RAD METAR and TAF weather

Enter ICAO airport designator
Station Type Date Time Source
TUPJ METAR 2024/04/17 17:00 UTC NOAA

TUPJ 171700Z 02006KT 10SM SCT019 30/24 A2994 RMK Q1014 VIS16KM


Station Type Date Time Source
TUPJ Decoded METAR 2024/04/17 17:00 UTC NOAA

Beef Island, Tortola, British Virgin Islands (TUPJ) 18-27N 064-32W
Apr 17, 2024 - 01:00 PM EDT / 2024.04.17 1700 UTC
Wind: from the NNE (020 degrees) at 7 MPH (6 KT):0
Visibility: 10 mile(s):0
Sky conditions: partly cloudy
Temperature: 86 F (30 C)
Heat index: 95.0 F (35.0 C):1
Dew Point: 75 F (24 C)
Relative Humidity: 70%
Pressure (altimeter): 29.94 in. Hg (1013 hPa)
ob: TUPJ 171700Z 02006KT 10SM SCT019 30/24 A2994 RMK Q1014 VIS16KM
cycle: 17

Station Type Date Time Source
TUPJ TAF 2024/04/17 18:54 UTC NOAA